(°C)
-3°
-5°
-2°
(°C)
-6°
-8°
-5°
-2°
NNE
NNE
NE
E
ESE
E
ESE
(km/h)
2-6
1-5
1-5
0-4
1-4
1-5
1-5
(mm)
0
0
0
0
0
0
0
(%)
0
0
0
0
0
0
0

Wysokość słońca

/ -3.8°
sun-icon
UV 1
08:00
18:29
Przybywający Księżyc garbaty (144°)
18:03
03:24

METAR dla 55.03°N 82.6°E (UNNT)

Czas Warunki Temperatura/
Punkt rosy
Wiatr Widzialność Pogoda Chmury Ciśn. atm. Zmień Surowy
LIFR -5°C / -6°C variable 0kt 260m. Runway 16: Visual range is 900m and decreasing. Runway 07: Visual range is 375m. freezing Fog Vertical Visibility of 0ft. 1024 No Significant change. Runway 16: Clear and dry, 51-100% contamination with <1mm, friction coefficient 0.70. Runway 07: Clear and dry, 51-100% contamination with <1mm, friction coefficient 0.70. UNNT 170000Z 00000MPS 0250 0100SE R16/0900D R07/0375N FZFG VV001 M05/M06 Q1024 R16/090070 R07/090070 NOSIG RMK QBB040 QFE758/1011
LIFR -5°C / -5°C 260º 2kt 140m. Runway 16: Visual range is 650m. Runway 07: Visual range is 550m. freezing Fog Vertical Visibility of 0ft. 1024 No Significant change. Runway 16: Clear and dry, 51-100% contamination with <1mm, friction coefficient 0.70. Runway 07: Clear and dry, 51-100% contamination with <1mm, friction coefficient 0.70. UNNT 162330Z 26001MPS 0150 R16/0650N R07/0550N FZFG VV001 M05/M05 Q1024 R16/090070 R07/090070 NOSIG RMK QBB050 QFE758/1011
LIFR -6°C / -6°C variable 2kt 140m. Runway 16: Visual range is 550m. Runway 07: Visual range is 800m. freezing Fog Vertical Visibility of 0ft. 1024 No Significant change. Runway 16: Clear and dry, 51-100% contamination with <1mm, friction coefficient 0.70. Runway 07: Clear and dry, 51-100% contamination with <1mm, friction coefficient 0.70. UNNT 162300Z VRB01MPS 0150 R16/0550N R07/0800N FZFG VV001 M06/M06 Q1024 R16/090070 R07/090070 NOSIG RMK QBB050 QFE758/1011
LIFR -6°C / -6°C 280º 2kt 140m. Runway 16: Visual range is 700m and increasing. Runway 07: Visual range is 550m and increasing. freezing Fog Vertical Visibility of 0ft. 1024 No Significant change. Runway 16: Clear and dry, 51-100% contamination with <1mm, friction coefficient 0.70. Runway 07: Clear and dry, 51-100% contamination with <1mm, friction coefficient 0.70. UNNT 162230Z 28001MPS 0150 R16/0700U R07/0550U FZFG VV001 M06/M06 Q1024 R16/090070 R07/090070 NOSIG RMK QBB050 QFE758/1011
LIFR -5°C / -6°C 290º 2kt 140m. Runway 16: Visual range is 750m and decreasing. Runway 07: Visual range is 600m and decreasing. freezing Fog Vertical Visibility of 0ft. 1024 No Significant change. Runway 16: Clear and dry, 51-100% contamination with <1mm, friction coefficient 0.70. Runway 07: Clear and dry, 51-100% contamination with <1mm, friction coefficient 0.70. UNNT 162200Z 29001MPS 0150 0100SE R16/0750D R07/0600D FZFG VV001 M05/M06 Q1024 R16/090070 R07/090070 NOSIG RMK QBB050 QFE758/1011
LIFR -6°C / -6°C 280º 2kt 190m. Runway 16: Visual range is 650m. Runway 07: Visual range is 800m and decreasing. freezing Fog Vertical Visibility of 0ft. 1025 No Significant change. Runway 16: Clear and dry, 51-100% contamination with <1mm, friction coefficient 0.70. Runway 07: Clear and dry, 51-100% contamination with <1mm, friction coefficient 0.70. UNNT 162130Z 28001MPS 0200 0150S R16/0650N R07/0800D FZFG VV001 M06/M06 Q1025 R16/090070 R07/090070 NOSIG RMK QBB050 QFE758/1011
LIFR -4°C / -4°C 310º 2kt 140m. Runway 16: Visual range is 1200m and decreasing. Runway 07: Visual range is 550m. freezing Fog Vertical Visibility of 0ft. 1025 No Significant change. Runway 16: Clear and dry, 51-100% contamination with <1mm, friction coefficient 0.70. Runway 07: Clear and dry, 51-100% contamination with <1mm, friction coefficient 0.70. UNNT 162100Z 31001MPS 0150 0100S R16/1200D R07/0550N FZFG VV001 M04/M04 Q1025 R16/090070 R07/090070 NOSIG RMK QBB040 QFE758/1011
LIFR -5°C / -5°C 300º 4kt 140m. Runway 16: Visual range is 650m. Runway 07: Visual range is 650m. freezing Fog Vertical Visibility of 0ft. 1025 No Significant change. Runway 16: Clear and dry, 51-100% contamination with <1mm, friction coefficient 0.70. Runway 07: Clear and dry, 51-100% contamination with <1mm, friction coefficient 0.70. UNNT 162030Z 30002MPS 0150 0100S R16/0650N R07/0650N FZFG VV001 M05/M05 Q1025 R16/090070 R07/090070 NOSIG RMK QBB050 QFE759/1012
LIFR -5°C / -5°C 310º 2kt 190m. Runway 16: Visual range is 600m. Runway 07: Visual range is 400m and increasing. freezing Fog Vertical Visibility of 0ft. 1025 No Significant change. Runway 16: Clear and dry, 51-100% contamination with <1mm, friction coefficient 0.70. Runway 07: Clear and dry, 51-100% contamination with <1mm, friction coefficient 0.70. UNNT 162000Z 31001MPS 0200 0050SE R16/0600N R07/0400U FZFG VV003 M05/M05 Q1025 R16/090070 R07/090070 NOSIG RMK QFE759/1012
LIFR -3°C / -4°C variable 2kt 100m. Runway 07: Visual range is 350m and decreasing. freezing Fog Vertical Visibility of 0ft. 1025 No Significant change. Runway 07: Clear and dry, 51-100% contamination with <1mm, friction coefficient 0.70. Runway 16: Clear and dry, 51-100% contamination with <1mm, friction coefficient 0.70. UNNT 161930Z VRB01MPS 0100 R07/0350D FZFG SCT002 M03/M04 Q1025 R07/090070 R16/090070 NOSIG RMK QFE759/1012
LIFR -4°C / -4°C 290º 4kt 1100m. Runway 25: Visual range is 550m. freezing Fog Vertical Visibility of 0ft. 1025 No Significant change. Runway 25: Clear and dry, 51-100% contamination with <1mm, friction coefficient 0.70. Runway 16: Clear and dry, 51-100% contamination with <1mm, friction coefficient 0.70. UNNT 161900Z 29002MPS 1100 0100SE R25/0550N FZFG SCT002 M04/M04 Q1025 R25/090070 R16/090070 NOSIG RMK QFE759/1012
LIFR -3°C / -3°C 290º 4kt 190m. Runway 25: Visual range is 700m. freezing Fog Vertical Visibility of 0ft. 1025 No Significant change. Runway 25: Clear and dry, 51-100% contamination with <1mm, friction coefficient 0.70. Runway 16: Clear and dry, 51-100% contamination with <1mm, friction coefficient 0.70. UNNT 161830Z 29002MPS 0200 0100SE R25/0700N FZFG NSC M03/M03 Q1025 R25/090070 R16/090070 NOSIG RMK QFE759/1012
LIFR -4°C / -4°C 330º 4kt 350m. Runway 25: Visual range is 1000m and increasing. freezing Fog Vertical Visibility of 0ft. 1025 No Significant change. Runway 25: Clear and dry, 51-100% contamination with <1mm, friction coefficient 0.70. Runway 16: Clear and dry, 51-100% contamination with <1mm, friction coefficient 0.70. UNNT 161800Z 33002MPS 0350 0100SE R25/1000U FZFG NSC M04/M04 Q1025 R25/090070 R16/090070 NOSIG RMK QFE759/1012
IFR -1°C / -1°C 330º 2kt 2000m. Runway 25: Visual range is 2000m and decreasing. freezing Fog Vertical Visibility of 0ft. 1026 No Significant change. Runway 25: Clear and dry, 51-100% contamination with <1mm, friction coefficient 0.70. Runway 16: Clear and dry, 51-100% contamination with <1mm, friction coefficient 0.70. UNNT 161730Z 33001MPS 2000 0100SE R25/P2000D FZFG NSC M01/M01 Q1026 R25/090070 R16/090070 NOSIG RMK QFE759/1012
IFR -2°C / -2°C 350º 2kt 3100m freezing Fog Vertical Visibility of 0ft. 1026 No Significant change. Runway 25: Clear and dry, 51-100% contamination with <1mm, friction coefficient 0.70. Runway 16: Clear and dry, 51-100% contamination with <1mm, friction coefficient 0.70. UNNT 161700Z 35001MPS 3100 0200SE FZFG NSC M02/M02 Q1026 R25/090070 R16/090070 NOSIG RMK QFE759/1012
MVFR -2°C / -2°C 10º 4kt 8000m Mist Vertical Visibility of 0ft. 1026 No Significant change. Runway 25: Clear and dry, 51-100% contamination with <1mm, friction coefficient 0.70. Runway 16: Clear and dry, 51-100% contamination with <1mm, friction coefficient 0.70. UNNT 161630Z 01002MPS 8000 3600SE BR NSC M02/M02 Q1026 R25/090070 R16/090070 NOSIG RMK QFE759/1012
VFR -1°C / -1°C 310º 4kt 9000m - Clear 1026 No Significant change. Runway 25: Clear and dry, 51-100% contamination with <1mm, friction coefficient 0.70. Runway 16: Clear and dry, 51-100% contamination with <1mm, friction coefficient 0.70. UNNT 161600Z 31002MPS 9000 NSC M01/M01 Q1026 R25/090070 R16/090070 NOSIG RMK QFE759/1013
VFR 0°C / -2°C variable 2kt >10km - Clouds and Visibility OK 1026 No Significant change. Runway 16: Clear and dry, 51-100% contamination with <1mm, friction coefficient 0.70. Runway 07: Clear and dry, 51-100% contamination with <1mm, friction coefficient 0.70. UNNT 161530Z VRB01MPS CAVOK M00/M02 Q1026 R16/090070 R07/090070 NOSIG RMK QFE759/1013
VFR 2°C / 1°C 340º 4kt >10km - Clouds and Visibility OK 1026 No Significant change. Runway 16: Clear and dry, 51-100% contamination with <1mm, friction coefficient 0.70. Runway 07: Clear and dry, 51-100% contamination with <1mm, friction coefficient 0.70. UNNT 161500Z 34002MPS CAVOK 02/01 Q1026 R16/090070 R07/090070 NOSIG RMK QFE760/1013
VFR 3°C / 1°C 340º 2kt >10km - Clouds and Visibility OK 1026 No Significant change. Runway 16: Clear and dry, 51-100% contamination with <1mm, friction coefficient 0.70. Runway 07: Clear and dry, 51-100% contamination with <1mm, friction coefficient 0.70. UNNT 161430Z 34001MPS CAVOK 03/01 Q1026 R16/090070 R07/090070 NOSIG RMK QFE760/1013
VFR 3°C / 1°C 10º 4kt >10km - Clouds and Visibility OK 1026 No Significant change. Runway 16: Clear and dry, 51-100% contamination with <1mm, friction coefficient 0.70. Runway 07: Clear and dry, 51-100% contamination with <1mm, friction coefficient 0.70. UNNT 161400Z 01002MPS CAVOK 03/01 Q1026 R16/090070 R07/090070 NOSIG RMK QFE760/1013
VFR 5°C / 2°C 20º 4kt >10km - Clouds and Visibility OK 1026 No Significant change. Runway 16: Clear and dry, 51-100% contamination with <1mm, friction coefficient 0.70. Runway 07: Clear and dry, 51-100% contamination with <1mm, friction coefficient 0.70. UNNT 161330Z 02002MPS CAVOK 05/02 Q1026 R16/090070 R07/090070 NOSIG RMK QFE760/1013
VFR 4°C / 1°C 20º 4kt >10km - Clouds and Visibility OK 1026 No Significant change. Runway 16: Clear and dry, 51-100% contamination with <1mm, friction coefficient 0.70. Runway 07: Clear and dry, 51-100% contamination with <1mm, friction coefficient 0.70. UNNT 161300Z 02002MPS CAVOK 04/01 Q1026 R16/090070 R07/090070 NOSIG RMK QFE760/1013
VFR 4°C / 1°C 360º 4kt >10km - Clouds and Visibility OK 1027 No Significant change. Runway 16: Clear and dry, 51-100% contamination with <1mm, friction coefficient 0.70. Runway 07: Clear and dry, 51-100% contamination with <1mm, friction coefficient 0.70. UNNT 161230Z 36002MPS CAVOK 04/01 Q1027 R16/090070 R07/090070 NOSIG RMK QFE760/1013

LIFR

-5°C / -6°C

[Więcej]
Wiatr variable 0kt
Widzialność 260m. Runway 16: Visual range is 900m and decreasing. Runway 07: Visual range is 375m.
Pogoda freezing Fog
Chmury Vertical Visibility of 0ft.
Ciśn. atm. 1024
Zmień No Significant change. Runway 16: Clear and dry, 51-100% contamination with <1mm, friction coefficient 0.70. Runway 07: Clear and dry, 51-100% contamination with <1mm, friction coefficient 0.70.
Surowy UNNT 170000Z 00000MPS 0250 0100SE R16/0900D R07/0375N FZFG VV001 M05/M06 Q1024 R16/090070 R07/090070 NOSIG RMK QBB040 QFE758/1011

LIFR

-5°C / -5°C

[Więcej]
Wiatr 260º 2kt
Widzialność 140m. Runway 16: Visual range is 650m. Runway 07: Visual range is 550m.
Pogoda freezing Fog
Chmury Vertical Visibility of 0ft.
Ciśn. atm. 1024
Zmień No Significant change. Runway 16: Clear and dry, 51-100% contamination with <1mm, friction coefficient 0.70. Runway 07: Clear and dry, 51-100% contamination with <1mm, friction coefficient 0.70.
Surowy UNNT 162330Z 26001MPS 0150 R16/0650N R07/0550N FZFG VV001 M05/M05 Q1024 R16/090070 R07/090070 NOSIG RMK QBB050 QFE758/1011

LIFR

-6°C / -6°C

[Więcej]
Wiatr variable 2kt
Widzialność 140m. Runway 16: Visual range is 550m. Runway 07: Visual range is 800m.
Pogoda freezing Fog
Chmury Vertical Visibility of 0ft.
Ciśn. atm. 1024
Zmień No Significant change. Runway 16: Clear and dry, 51-100% contamination with <1mm, friction coefficient 0.70. Runway 07: Clear and dry, 51-100% contamination with <1mm, friction coefficient 0.70.
Surowy UNNT 162300Z VRB01MPS 0150 R16/0550N R07/0800N FZFG VV001 M06/M06 Q1024 R16/090070 R07/090070 NOSIG RMK QBB050 QFE758/1011

LIFR

-6°C / -6°C

[Więcej]
Wiatr 280º 2kt
Widzialność 140m. Runway 16: Visual range is 700m and increasing. Runway 07: Visual range is 550m and increasing.
Pogoda freezing Fog
Chmury Vertical Visibility of 0ft.
Ciśn. atm. 1024
Zmień No Significant change. Runway 16: Clear and dry, 51-100% contamination with <1mm, friction coefficient 0.70. Runway 07: Clear and dry, 51-100% contamination with <1mm, friction coefficient 0.70.
Surowy UNNT 162230Z 28001MPS 0150 R16/0700U R07/0550U FZFG VV001 M06/M06 Q1024 R16/090070 R07/090070 NOSIG RMK QBB050 QFE758/1011

LIFR

-5°C / -6°C

[Więcej]
Wiatr 290º 2kt
Widzialność 140m. Runway 16: Visual range is 750m and decreasing. Runway 07: Visual range is 600m and decreasing.
Pogoda freezing Fog
Chmury Vertical Visibility of 0ft.
Ciśn. atm. 1024
Zmień No Significant change. Runway 16: Clear and dry, 51-100% contamination with <1mm, friction coefficient 0.70. Runway 07: Clear and dry, 51-100% contamination with <1mm, friction coefficient 0.70.
Surowy UNNT 162200Z 29001MPS 0150 0100SE R16/0750D R07/0600D FZFG VV001 M05/M06 Q1024 R16/090070 R07/090070 NOSIG RMK QBB050 QFE758/1011

LIFR

-6°C / -6°C

[Więcej]
Wiatr 280º 2kt
Widzialność 190m. Runway 16: Visual range is 650m. Runway 07: Visual range is 800m and decreasing.
Pogoda freezing Fog
Chmury Vertical Visibility of 0ft.
Ciśn. atm. 1025
Zmień No Significant change. Runway 16: Clear and dry, 51-100% contamination with <1mm, friction coefficient 0.70. Runway 07: Clear and dry, 51-100% contamination with <1mm, friction coefficient 0.70.
Surowy UNNT 162130Z 28001MPS 0200 0150S R16/0650N R07/0800D FZFG VV001 M06/M06 Q1025 R16/090070 R07/090070 NOSIG RMK QBB050 QFE758/1011

LIFR

-4°C / -4°C

[Więcej]
Wiatr 310º 2kt
Widzialność 140m. Runway 16: Visual range is 1200m and decreasing. Runway 07: Visual range is 550m.
Pogoda freezing Fog
Chmury Vertical Visibility of 0ft.
Ciśn. atm. 1025
Zmień No Significant change. Runway 16: Clear and dry, 51-100% contamination with <1mm, friction coefficient 0.70. Runway 07: Clear and dry, 51-100% contamination with <1mm, friction coefficient 0.70.
Surowy UNNT 162100Z 31001MPS 0150 0100S R16/1200D R07/0550N FZFG VV001 M04/M04 Q1025 R16/090070 R07/090070 NOSIG RMK QBB040 QFE758/1011

LIFR

-5°C / -5°C

[Więcej]
Wiatr 300º 4kt
Widzialność 140m. Runway 16: Visual range is 650m. Runway 07: Visual range is 650m.
Pogoda freezing Fog
Chmury Vertical Visibility of 0ft.
Ciśn. atm. 1025
Zmień No Significant change. Runway 16: Clear and dry, 51-100% contamination with <1mm, friction coefficient 0.70. Runway 07: Clear and dry, 51-100% contamination with <1mm, friction coefficient 0.70.
Surowy UNNT 162030Z 30002MPS 0150 0100S R16/0650N R07/0650N FZFG VV001 M05/M05 Q1025 R16/090070 R07/090070 NOSIG RMK QBB050 QFE759/1012

LIFR

-5°C / -5°C

[Więcej]
Wiatr 310º 2kt
Widzialność 190m. Runway 16: Visual range is 600m. Runway 07: Visual range is 400m and increasing.
Pogoda freezing Fog
Chmury Vertical Visibility of 0ft.
Ciśn. atm. 1025
Zmień No Significant change. Runway 16: Clear and dry, 51-100% contamination with <1mm, friction coefficient 0.70. Runway 07: Clear and dry, 51-100% contamination with <1mm, friction coefficient 0.70.
Surowy UNNT 162000Z 31001MPS 0200 0050SE R16/0600N R07/0400U FZFG VV003 M05/M05 Q1025 R16/090070 R07/090070 NOSIG RMK QFE759/1012

LIFR

-3°C / -4°C

[Więcej]
Wiatr variable 2kt
Widzialność 100m. Runway 07: Visual range is 350m and decreasing.
Pogoda freezing Fog
Chmury Vertical Visibility of 0ft.
Ciśn. atm. 1025
Zmień No Significant change. Runway 07: Clear and dry, 51-100% contamination with <1mm, friction coefficient 0.70. Runway 16: Clear and dry, 51-100% contamination with <1mm, friction coefficient 0.70.
Surowy UNNT 161930Z VRB01MPS 0100 R07/0350D FZFG SCT002 M03/M04 Q1025 R07/090070 R16/090070 NOSIG RMK QFE759/1012

LIFR

-4°C / -4°C

[Więcej]
Wiatr 290º 4kt
Widzialność 1100m. Runway 25: Visual range is 550m.
Pogoda freezing Fog
Chmury Vertical Visibility of 0ft.
Ciśn. atm. 1025
Zmień No Significant change. Runway 25: Clear and dry, 51-100% contamination with <1mm, friction coefficient 0.70. Runway 16: Clear and dry, 51-100% contamination with <1mm, friction coefficient 0.70.
Surowy UNNT 161900Z 29002MPS 1100 0100SE R25/0550N FZFG SCT002 M04/M04 Q1025 R25/090070 R16/090070 NOSIG RMK QFE759/1012

LIFR

-3°C / -3°C

[Więcej]
Wiatr 290º 4kt
Widzialność 190m. Runway 25: Visual range is 700m.
Pogoda freezing Fog
Chmury Vertical Visibility of 0ft.
Ciśn. atm. 1025
Zmień No Significant change. Runway 25: Clear and dry, 51-100% contamination with <1mm, friction coefficient 0.70. Runway 16: Clear and dry, 51-100% contamination with <1mm, friction coefficient 0.70.
Surowy UNNT 161830Z 29002MPS 0200 0100SE R25/0700N FZFG NSC M03/M03 Q1025 R25/090070 R16/090070 NOSIG RMK QFE759/1012

LIFR

-4°C / -4°C

[Więcej]
Wiatr 330º 4kt
Widzialność 350m. Runway 25: Visual range is 1000m and increasing.
Pogoda freezing Fog
Chmury Vertical Visibility of 0ft.
Ciśn. atm. 1025
Zmień No Significant change. Runway 25: Clear and dry, 51-100% contamination with <1mm, friction coefficient 0.70. Runway 16: Clear and dry, 51-100% contamination with <1mm, friction coefficient 0.70.
Surowy UNNT 161800Z 33002MPS 0350 0100SE R25/1000U FZFG NSC M04/M04 Q1025 R25/090070 R16/090070 NOSIG RMK QFE759/1012

IFR

-1°C / -1°C

[Więcej]
Wiatr 330º 2kt
Widzialność 2000m. Runway 25: Visual range is 2000m and decreasing.
Pogoda freezing Fog
Chmury Vertical Visibility of 0ft.
Ciśn. atm. 1026
Zmień No Significant change. Runway 25: Clear and dry, 51-100% contamination with <1mm, friction coefficient 0.70. Runway 16: Clear and dry, 51-100% contamination with <1mm, friction coefficient 0.70.
Surowy UNNT 161730Z 33001MPS 2000 0100SE R25/P2000D FZFG NSC M01/M01 Q1026 R25/090070 R16/090070 NOSIG RMK QFE759/1012

IFR

-2°C / -2°C

[Więcej]
Wiatr 350º 2kt
Widzialność 3100m
Pogoda freezing Fog
Chmury Vertical Visibility of 0ft.
Ciśn. atm. 1026
Zmień No Significant change. Runway 25: Clear and dry, 51-100% contamination with <1mm, friction coefficient 0.70. Runway 16: Clear and dry, 51-100% contamination with <1mm, friction coefficient 0.70.
Surowy UNNT 161700Z 35001MPS 3100 0200SE FZFG NSC M02/M02 Q1026 R25/090070 R16/090070 NOSIG RMK QFE759/1012

MVFR

-2°C / -2°C

[Więcej]
Wiatr 10º 4kt
Widzialność 8000m
Pogoda Mist
Chmury Vertical Visibility of 0ft.
Ciśn. atm. 1026
Zmień No Significant change. Runway 25: Clear and dry, 51-100% contamination with <1mm, friction coefficient 0.70. Runway 16: Clear and dry, 51-100% contamination with <1mm, friction coefficient 0.70.
Surowy UNNT 161630Z 01002MPS 8000 3600SE BR NSC M02/M02 Q1026 R25/090070 R16/090070 NOSIG RMK QFE759/1012

VFR

-1°C / -1°C

[Więcej]
Wiatr 310º 4kt
Widzialność 9000m
Pogoda -
Chmury Clear
Ciśn. atm. 1026
Zmień No Significant change. Runway 25: Clear and dry, 51-100% contamination with <1mm, friction coefficient 0.70. Runway 16: Clear and dry, 51-100% contamination with <1mm, friction coefficient 0.70.
Surowy UNNT 161600Z 31002MPS 9000 NSC M01/M01 Q1026 R25/090070 R16/090070 NOSIG RMK QFE759/1013

VFR

0°C / -2°C

[Więcej]
Wiatr variable 2kt
Widzialność >10km
Pogoda -
Chmury Clouds and Visibility OK
Ciśn. atm. 1026
Zmień No Significant change. Runway 16: Clear and dry, 51-100% contamination with <1mm, friction coefficient 0.70. Runway 07: Clear and dry, 51-100% contamination with <1mm, friction coefficient 0.70.
Surowy UNNT 161530Z VRB01MPS CAVOK M00/M02 Q1026 R16/090070 R07/090070 NOSIG RMK QFE759/1013

VFR

2°C / 1°C

[Więcej]
Wiatr 340º 4kt
Widzialność >10km
Pogoda -
Chmury Clouds and Visibility OK
Ciśn. atm. 1026
Zmień No Significant change. Runway 16: Clear and dry, 51-100% contamination with <1mm, friction coefficient 0.70. Runway 07: Clear and dry, 51-100% contamination with <1mm, friction coefficient 0.70.
Surowy UNNT 161500Z 34002MPS CAVOK 02/01 Q1026 R16/090070 R07/090070 NOSIG RMK QFE760/1013

VFR

3°C / 1°C

[Więcej]
Wiatr 340º 2kt
Widzialność >10km
Pogoda -
Chmury Clouds and Visibility OK
Ciśn. atm. 1026
Zmień No Significant change. Runway 16: Clear and dry, 51-100% contamination with <1mm, friction coefficient 0.70. Runway 07: Clear and dry, 51-100% contamination with <1mm, friction coefficient 0.70.
Surowy UNNT 161430Z 34001MPS CAVOK 03/01 Q1026 R16/090070 R07/090070 NOSIG RMK QFE760/1013

VFR

3°C / 1°C

[Więcej]
Wiatr 10º 4kt
Widzialność >10km
Pogoda -
Chmury Clouds and Visibility OK
Ciśn. atm. 1026
Zmień No Significant change. Runway 16: Clear and dry, 51-100% contamination with <1mm, friction coefficient 0.70. Runway 07: Clear and dry, 51-100% contamination with <1mm, friction coefficient 0.70.
Surowy UNNT 161400Z 01002MPS CAVOK 03/01 Q1026 R16/090070 R07/090070 NOSIG RMK QFE760/1013

VFR

5°C / 2°C

[Więcej]
Wiatr 20º 4kt
Widzialność >10km
Pogoda -
Chmury Clouds and Visibility OK
Ciśn. atm. 1026
Zmień No Significant change. Runway 16: Clear and dry, 51-100% contamination with <1mm, friction coefficient 0.70. Runway 07: Clear and dry, 51-100% contamination with <1mm, friction coefficient 0.70.
Surowy UNNT 161330Z 02002MPS CAVOK 05/02 Q1026 R16/090070 R07/090070 NOSIG RMK QFE760/1013

VFR

4°C / 1°C

[Więcej]
Wiatr 20º 4kt
Widzialność >10km
Pogoda -
Chmury Clouds and Visibility OK
Ciśn. atm. 1026
Zmień No Significant change. Runway 16: Clear and dry, 51-100% contamination with <1mm, friction coefficient 0.70. Runway 07: Clear and dry, 51-100% contamination with <1mm, friction coefficient 0.70.
Surowy UNNT 161300Z 02002MPS CAVOK 04/01 Q1026 R16/090070 R07/090070 NOSIG RMK QFE760/1013

VFR

4°C / 1°C

[Więcej]
Wiatr 360º 4kt
Widzialność >10km
Pogoda -
Chmury Clouds and Visibility OK
Ciśn. atm. 1027
Zmień No Significant change. Runway 16: Clear and dry, 51-100% contamination with <1mm, friction coefficient 0.70. Runway 07: Clear and dry, 51-100% contamination with <1mm, friction coefficient 0.70.
Surowy UNNT 161230Z 36002MPS CAVOK 04/01 Q1027 R16/090070 R07/090070 NOSIG RMK QFE760/1013

TAF dla 55.03°N 82.6°E (UNNT)

From till


From till Wind 360º 6kt. Visibility 144.841m. freezing Fog . Broken Clouds 100ft.
Temporarly from till Visibility 804.670m. freezing Fog . Broken Clouds 200ft.
Becoming from till Wind 360º 6kt. Visibility 10km or more. Nil Significant Cloud.

Surowy: TAF UNNT 162300Z 1700/1724 36003MPS 0150 FZFG BKN001 TEMPO 1700/1704 0800 FZFG BKN002 BECMG 1704/1706 CAVOK

Aktualne zdjęcia satelitarne i zdjęcia opadów deszczu dla 55.03°N 82.6°E

Wskaźnik lokalizacji znajduje się na 55.03°N 82.6°E. [Więcej]

Obraz satelitarny w czasie rzeczywistym łączy światło widzialne w ciągu dnia z promieniowaniem podczerwonym w nocy. W nocy obraz nie jest ciemny, ponieważ promieniowanie podczerwone może wykrywać różnice temperatur. Niestety niskie chmury i mgłę trudno odróżnić od temperatury gruntu, przez co mogą być prawie niewidoczne w nocy. Zdjęcia satelitarne Meteosat dla Europy są aktualizowane w czasie rzeczywistym co 5 minut. Obrazy GOES-16/GOES-17 (Ameryka Północna i Południowa) oraz Himawari (Azja) są aktualizowane co 10 minut.

Prawa autorskie 2021 EUMETSAT / meteoblue. / Prawa autorskie 2021 meteoblue

Radar i prognoza opadów na teraz dla 55.03°N 82.6°E

Mżawka
Lekki
Umiarkowane
Ulewne
Bardzo ciężkie
Grad

Wskaźnik lokalizacji jest umieszczony na 55.03°N 82.6°E. Animacja przedstawia radar opadów dla ostatniej godziny, jak również 1h prognozę pogody. Mżawka lub lekki opad śniegu może być niewidoczny dla radaru. Intensywność opadów jest oznaczona kolorami, od jasnoniebieskiego do pomarańczowego.